Time;durP1;ratioP1;P1;durP2;ratioP2;P2;SDS_P1;SDS_P2;PMS_P1;PMS_P2;Temp;Humidity;BMP_temperature;BMP_pressure;BME280_temperature;BME280_humidity;BME280_pressure;Samples;Min_cycle;Max_cycle;Signal;HPM_P1;HPM_P2
2021/06/21 00:08:52;;;;;;;2.95;1.00;;;17.30;99.90;;;;;;20909725;28;20120;-49
2021/06/21 00:18:54;;;;;;;3.95;1.08;;;17.20;99.90;;;;;;20912167;28;20136;-49
2021/06/21 00:28:55;;;;;;;2.03;0.93;;;17.00;99.90;;;;;;20903316;28;20123;-52
2021/06/21 00:38:56;;;;;;;2.38;1.30;;;16.80;99.90;;;;;;20908390;28;20053;-52
2021/06/21 00:48:57;;;;;;;2.55;0.90;;;16.50;99.90;;;;;;20901827;28;20103;-51
2021/06/21 00:59:00;;;;;;;3.38;1.30;;;16.40;99.90;;;;;;20901748;28;20055;-51
2021/06/21 01:09:02;;;;;;;5.75;1.42;;;16.30;99.90;;;;;;20899989;28;20041;-52
2021/06/21 01:19:32;;;;;;;3.80;1.17;;;16.20;99.90;;;;;;20914714;28;20132;-52
2021/06/21 01:29:45;;;;;;;3.58;1.30;;;16.00;99.90;;;;;;20898225;28;20037;-51
2021/06/21 01:39:50;;;;;;;2.60;1.08;;;15.90;99.90;;;;;;20899854;28;20650;-52
2021/06/21 01:49:52;;;;;;;2.55;1.10;;;15.90;99.90;;;;;;20891077;28;20438;-52
2021/06/21 01:59:55;;;;;;;5.35;1.73;;;15.90;99.90;;;;;;20898623;28;20060;-52
2021/06/21 02:09:57;;;;;;;3.33;0.93;;;15.80;99.90;;;;;;20949387;28;20039;-52
2021/06/21 02:19:59;;;;;;;3.13;1.20;;;15.90;99.90;;;;;;20908753;28;20508;-52
2021/06/21 02:30:01;;;;;;;4.20;1.25;;;15.80;99.90;;;;;;20902782;28;20124;-51
2021/06/21 02:40:09;;;;;;;3.47;1.00;;;15.70;99.90;;;;;;20903292;28;20083;-52
2021/06/21 02:50:11;;;;;;;3.20;1.27;;;15.50;99.90;;;;;;20912276;28;20048;-52
2021/06/21 03:00:13;;;;;;;3.40;1.50;;;15.30;99.90;;;;;;20905137;28;20044;-52
2021/06/21 03:10:16;;;;;;;3.70;1.52;;;15.20;99.90;;;;;;20898376;28;20061;-52
2021/06/21 03:20:19;;;;;;;2.75;1.42;;;14.90;99.90;;;;;;20905489;28;20087;-52
2021/06/21 03:30:21;;;;;;;3.20;1.33;;;14.80;99.90;;;;;;20913237;28;20120;-52
2021/06/21 03:40:22;;;;;;;4.65;1.95;;;14.70;99.90;;;;;;20895885;28;20049;-52
2021/06/21 03:50:24;;;;;;;2.92;0.98;;;14.70;99.90;;;;;;20906926;28;20048;-52
2021/06/21 04:00:27;;;;;;;3.53;1.00;;;14.50;99.90;;;;;;20905557;28;20165;-52
2021/06/21 04:10:28;;;;;;;3.17;0.95;;;14.50;99.90;;;;;;20901257;28;20036;-52
2021/06/21 04:20:30;;;;;;;2.65;1.35;;;14.50;99.90;;;;;;20902306;28;20044;-51
2021/06/21 04:30:32;;;;;;;4.25;1.17;;;14.40;99.90;;;;;;20906882;28;20171;-51
2021/06/21 04:40:35;;;;;;;4.15;1.65;;;14.40;99.90;;;;;;20897376;28;20079;-51
2021/06/21 04:50:37;;;;;;;2.78;1.20;;;14.40;99.90;;;;;;20905958;28;20052;-52
2021/06/21 05:00:38;;;;;;;3.50;1.73;;;14.40;99.90;;;;;;20893366;28;20075;-52
2021/06/21 05:10:39;;;;;;;4.82;1.65;;;14.40;99.90;;;;;;20895685;28;20056;-51
2021/06/21 05:20:41;;;;;;;1.75;0.77;;;14.30;99.90;;;;;;20901699;28;20502;-51
2021/06/21 05:30:42;;;;;;;2.55;1.02;;;14.20;99.90;;;;;;20902611;28;20047;-51
2021/06/21 05:40:44;;;;;;;2.45;0.90;;;14.20;99.90;;;;;;20901650;28;20179;-51
2021/06/21 05:50:46;;;;;;;3.78;1.27;;;14.20;99.90;;;;;;20891110;28;20063;-51
2021/06/21 06:00:47;;;;;;;2.40;0.65;;;14.30;99.90;;;;;;20896850;28;20044;-50
2021/06/21 06:10:48;;;;;;;11.55;3.10;;;14.40;99.90;;;;;;20903910;28;20487;-51
2021/06/21 06:20:50;;;;;;;2.78;0.98;;;14.30;99.90;;;;;;20909151;28;20045;-51
2021/06/21 06:30:51;;;;;;;1.77;0.70;;;14.30;99.90;;;;;;20895601;28;20175;-51
2021/06/21 06:40:52;;;;;;;1.70;0.50;;;14.30;99.90;;;;;;20904009;28;20141;-51
2021/06/21 06:50:54;;;;;;;3.53;1.02;;;14.30;99.90;;;;;;20912535;28;20048;-51
2021/06/21 07:00:55;;;;;;;2.00;0.77;;;14.30;99.90;;;;;;20912319;28;20057;-51
2021/06/21 07:10:56;;;;;;;2.20;0.90;;;14.20;99.90;;;;;;20909126;28;20036;-51
2021/06/21 07:20:57;;;;;;;2.60;0.82;;;14.20;99.90;;;;;;20901569;28;20369;-50
2021/06/21 07:30:59;;;;;;;1.98;0.70;;;14.20;99.90;;;;;;20910561;28;20106;-51
2021/06/21 07:41:00;;;;;;;3.17;0.90;;;14.20;99.90;;;;;;20902660;28;20244;-51
2021/06/21 07:51:02;;;;;;;1.48;0.60;;;14.30;99.90;;;;;;20904716;28;20036;-50
2021/06/21 08:01:05;;;;;;;1.98;0.57;;;14.20;99.90;;;;;;20897702;28;20060;-50
2021/06/21 08:11:07;;;;;;;3.92;1.25;;;14.10;99.90;;;;;;20898747;28;20048;-50
2021/06/21 08:21:08;;;;;;;1.40;0.50;;;14.10;99.90;;;;;;20907376;28;20060;-50
2021/06/21 08:31:09;;;;;;;1.70;0.45;;;14.10;99.90;;;;;;20904561;28;20493;-50
2021/06/21 08:41:11;;;;;;;3.40;1.00;;;14.30;99.90;;;;;;20900604;28;20048;-49
2021/06/21 08:51:14;;;;;;;2.05;0.80;;;14.30;99.90;;;;;;20907089;28;20441;-50
2021/06/21 09:01:15;;;;;;;1.92;1.05;;;14.30;99.90;;;;;;20899142;28;20059;-50
2021/06/21 09:11:16;;;;;;;1.60;0.40;;;14.40;99.90;;;;;;20893646;28;20041;-50
2021/06/21 09:21:24;;;;;;;1.00;0.57;;;14.50;99.90;;;;;;20900497;28;20127;-50
2021/06/21 09:31:26;;;;;;;1.67;0.50;;;14.60;99.90;;;;;;20893619;28;20044;-50
2021/06/21 09:41:27;;;;;;;1.45;0.65;;;14.70;99.90;;;;;;20900192;28;20117;-50
2021/06/21 09:51:46;;;;;;;2.08;0.60;;;14.80;99.90;;;;;;20901896;28;20041;-52
2021/06/21 10:02:08;;;;;;;0.77;0.30;;;14.70;99.90;;;;;;20900020;28;20053;-51
2021/06/21 10:12:21;;;;;;;0.68;0.20;;;14.70;99.90;;;;;;20900866;28;20459;-51
2021/06/21 10:22:24;;;;;;;1.90;1.02;;;14.80;99.90;;;;;;20880844;28;20330;-51
2021/06/21 10:32:27;;;;;;;1.13;0.38;;;14.70;99.90;;;;;;20928879;28;20094;-51
2021/06/21 10:42:37;;;;;;;2.25;0.73;;;14.60;99.90;;;;;;20914849;28;20049;-51
2021/06/21 10:52:59;;;;;;;1.35;0.60;;;14.60;99.90;;;;;;20911972;28;20480;-50
2021/06/21 11:03:02;;;;;;;3.67;0.32;;;14.50;99.90;;;;;;20901425;28;20570;-50
2021/06/21 11:13:33;;;;;;;2.67;0.70;;;14.50;99.90;;;;;;20913406;28;20082;-51
2021/06/21 11:23:45;;;;;;;1.92;0.73;;;14.60;99.90;;;;;;20917465;28;20088;-50
2021/06/21 11:33:52;;;;;;;0.90;0.30;;;14.50;99.90;;;;;;20908464;28;20036;-50
2021/06/21 11:43:55;;;;;;;1.55;0.60;;;14.70;99.90;;;;;;20918590;28;20044;-50
2021/06/21 11:54:00;;;;;;;0.88;0.30;;;14.60;99.90;;;;;;20909598;28;20067;-50
2021/06/21 12:04:04;;;;;;;1.25;0.50;;;14.80;99.90;;;;;;20903110;28;20396;-51
2021/06/21 12:14:06;;;;;;;5.70;1.15;;;15.00;99.90;;;;;;20893880;28;20029;-50
2021/06/21 12:24:21;;;;;;;1.17;0.40;;;14.90;99.90;;;;;;20903121;28;20040;-50
2021/06/21 12:34:44;;;;;;;1.88;0.68;;;14.90;99.90;;;;;;20899993;28;20057;-49
2021/06/21 12:44:47;;;;;;;3.50;0.90;;;15.20;99.90;;;;;;20907590;28;20044;-50
2021/06/21 12:54:55;;;;;;;1.38;0.65;;;15.30;99.90;;;;;;20903361;28;20051;-50
2021/06/21 13:05:03;;;;;;;2.25;0.68;;;15.80;99.90;;;;;;20908123;28;20564;-50
2021/06/21 13:15:11;;;;;;;2.22;0.95;;;16.00;99.90;;;;;;20890531;28;20037;-49
2021/06/21 13:25:32;;;;;;;1.80;0.73;;;15.70;99.90;;;;;;20899260;28;20036;-50
2021/06/21 13:35:34;;;;;;;1.15;0.40;;;15.70;99.90;;;;;;20897520;28;20511;-51
2021/06/21 13:45:41;;;;;;;1.85;0.80;;;15.70;99.90;;;;;;20894069;28;20041;-51
2021/06/21 13:55:46;;;;;;;3.35;0.70;;;15.80;99.90;;;;;;20906579;28;20126;-49
2021/06/21 14:05:48;;;;;;;1.10;0.50;;;15.90;99.90;;;;;;20912780;28;20045;-51
2021/06/21 14:15:49;;;;;;;3.55;1.05;;;15.80;99.90;;;;;;20921480;28;20045;-51
2021/06/21 14:25:51;;;;;;;1.83;0.90;;;15.70;99.90;;;;;;20920891;28;20045;-51
2021/06/21 14:35:52;;;;;;;2.17;0.40;;;15.60;99.90;;;;;;20917949;28;20048;-51
2021/06/21 14:45:53;;;;;;;2.53;0.82;;;15.60;99.90;;;;;;20879640;28;20072;-51
2021/06/21 14:55:55;;;;;;;1.38;0.63;;;15.80;99.90;;;;;;20904898;28;20049;-51
2021/06/21 15:05:56;;;;;;;1.60;0.73;;;15.70;99.90;;;;;;20925869;28;20036;-51
2021/06/21 15:15:58;;;;;;;1.92;1.05;;;15.60;99.90;;;;;;20919889;28;20548;-50
2021/06/21 15:26:00;;;;;;;1.83;0.60;;;15.70;99.90;;;;;;20897581;28;20033;-51
2021/06/21 15:36:01;;;;;;;1.88;0.63;;;15.70;99.90;;;;;;20927930;28;20386;-51
2021/06/21 15:46:03;;;;;;;1.17;0.60;;;15.80;99.90;;;;;;20913423;28;20110;-51
2021/06/21 15:56:05;;;;;;;2.42;1.30;;;15.50;99.90;;;;;;20919437;28;20041;-51
2021/06/21 16:06:06;;;;;;;2.05;1.02;;;15.50;99.90;;;;;;20899235;28;20408;-51
2021/06/21 16:16:08;;;;;;;2.65;1.00;;;15.50;99.90;;;;;;20887899;28;20051;-50
2021/06/21 16:26:09;;;;;;;3.28;1.27;;;15.60;99.90;;;;;;20898424;28;20074;-51
2021/06/21 16:36:10;;;;;;;3.38;0.82;;;15.60;99.90;;;;;;20847561;28;20804;-50
2021/06/21 16:46:11;;;;;;;4.35;0.70;;;15.40;99.90;;;;;;20802451;28;20397;-51
2021/06/21 16:56:12;;;;;;;2.53;1.20;;;15.40;99.90;;;;;;20863817;28;20056;-50
2021/06/21 17:06:13;;;;;;;5.65;1.00;;;15.30;99.90;;;;;;20855445;28;20401;-51
2021/06/21 17:16:15;;;;;;;4.97;1.02;;;15.10;99.90;;;;;;20890126;28;20043;-51
2021/06/21 17:26:16;;;;;;;5.10;1.17;;;15.20;99.90;;;;;;20898644;28;20128;-51
2021/06/21 17:36:17;;;;;;;5.00;0.70;;;15.00;99.90;;;;;;20890089;28;20053;-51
2021/06/21 17:46:18;;;;;;;2.47;1.50;;;14.90;99.90;;;;;;20815279;28;20699;-51
2021/06/21 17:56:19;;;;;;;2.20;1.05;;;14.90;99.90;;;;;;20813987;28;20049;-51
2021/06/21 18:06:21;;;;;;;4.78;1.05;;;14.90;99.90;;;;;;20809448;28;20037;-50
2021/06/21 18:16:22;;;;;;;4.50;0.85;;;15.00;99.90;;;;;;20784791;28;20710;-51
2021/06/21 18:26:24;;;;;;;7.50;0.82;;;15.00;99.90;;;;;;20813312;28;20045;-51
2021/06/21 18:36:25;;;;;;;3.55;1.05;;;15.00;99.90;;;;;;20779388;28;20087;-50
2021/06/21 18:46:26;;;;;;;2.88;0.80;;;14.90;99.90;;;;;;20816700;28;20073;-51
2021/06/21 18:56:27;;;;;;;4.78;1.02;;;14.80;99.90;;;;;;20827563;28;20070;-51
2021/06/21 19:06:30;;;;;;;6.20;1.60;;;14.80;99.90;;;;;;20841880;28;20041;-51
2021/06/21 19:16:31;;;;;;;1.30;0.60;;;14.80;99.90;;;;;;20876299;28;20061;-51
2021/06/21 19:26:32;;;;;;;1.77;0.68;;;14.70;99.90;;;;;;20887903;28;20045;-51
2021/06/21 19:36:34;;;;;;;5.63;2.50;;;14.70;99.90;;;;;;20779265;28;20483;-51
2021/06/21 19:46:35;;;;;;;2.83;0.63;;;14.60;99.90;;;;;;20352518;28;20080;-51
2021/06/21 19:56:36;;;;;;;4.47;0.73;;;14.50;99.90;;;;;;20776456;28;20067;-51
2021/06/21 20:06:38;;;;;;;2.13;0.85;;;14.40;99.90;;;;;;20903727;28;20028;-50
2021/06/21 20:16:39;;;;;;;1.80;0.73;;;14.30;99.90;;;;;;20899283;28;20052;-51
2021/06/21 20:26:41;;;;;;;2.78;0.90;;;14.30;99.90;;;;;;20842678;28;20051;-51
2021/06/21 20:36:57;;;;;;;5.22;0.88;;;14.20;99.90;;;;;;20608971;28;20114;-51
2021/06/21 20:46:58;;;;;;;1.90;0.75;;;14.30;99.90;;;;;;20895217;28;20041;-51
2021/06/21 20:57:00;;;;;;;3.47;1.23;;;14.10;99.90;;;;;;20883878;28;20102;-51
2021/06/21 21:07:02;;;;;;;4.45;0.95;;;14.20;99.90;;;;;;20896268;28;20036;-51
2021/06/21 21:17:03;;;;;;;2.85;0.73;;;14.00;99.90;;;;;;20900044;28;20058;-51
2021/06/21 21:27:05;;;;;;;1.70;0.60;;;14.00;99.90;;;;;;20887693;28;20041;-51
2021/06/21 21:37:07;;;;;;;1.55;0.80;;;13.90;99.90;;;;;;20895007;28;20084;-51
2021/06/21 21:47:08;;;;;;;5.18;1.75;;;13.90;99.90;;;;;;20897494;28;20043;-51
2021/06/21 21:57:09;;;;;;;4.13;0.90;;;13.80;99.90;;;;;;20852474;28;20259;-50
2021/06/21 22:07:10;;;;;;;4.57;1.17;;;13.80;99.90;;;;;;20879742;28;20246;-51
2021/06/21 22:17:11;;;;;;;3.65;0.90;;;13.70;99.90;;;;;;20818666;28;20050;-51
2021/06/21 22:27:12;;;;;;;7.35;1.70;;;13.80;99.90;;;;;;20807510;28;20048;-51
2021/06/21 22:37:13;;;;;;;2.85;1.52;;;13.90;99.90;;;;;;20832439;28;20070;-51
2021/06/21 22:47:15;;;;;;;2.72;1.30;;;13.90;99.90;;;;;;20902337;28;20421;-50
2021/06/21 22:57:16;;;;;;;11.73;1.58;;;13.80;99.90;;;;;;20885828;28;20040;-50
2021/06/21 23:07:17;;;;;;;2.33;0.70;;;13.70;99.90;;;;;;20887735;28;20040;-51
2021/06/21 23:17:18;;;;;;;2.05;0.75;;;13.80;99.90;;;;;;20902979;28;20048;-51
2021/06/21 23:27:19;;;;;;;1.42;0.75;;;13.60;99.90;;;;;;20898964;28;20063;-51
2021/06/21 23:37:21;;;;;;;2.60;1.13;;;13.60;99.90;;;;;;20897320;28;20143;-51
2021/06/21 23:47:23;;;;;;;2.38;0.70;;;13.80;99.90;;;;;;20895264;28;20076;-51
2021/06/21 23:57:24;;;;;;;4.40;0.70;;;13.60;99.90;;;;;;20866279;28;20052;-51
